DLH577 FACT-FYWH
Flight info
| Callsign | DLH577 |
|---|---|
| Flight time | 1h 56m |
| Altitude | 41000 |
| Route | KODES UN186 NEVAR |
| Aircraft | A343/H-SDE2E3FGHIJ3J5M1P2RWXYZ/LB1D1 |
Departure
| Time | 2026-04-21 16:55 |
|---|---|
| Airport | Cape Town International Airport (FACT) |
Arrival
| Time | 2026-04-21 18:51 |
|---|---|
| Airport | Hosea Kutako International Airport (FYWH) |
| Time | Latitude | Longitude | Altitude | Speed | Heading |
|---|---|---|---|---|---|
| 2026-04-21 15:37 | -33.96708 | 18.59738 | 157 ft | 0 kts | 253° |
| 2026-04-21 16:45 | -33.96704 | 18.59757 | 157 ft | 4 kts | 255° |
| 2026-04-21 16:46 | -33.96697 | 18.59789 | 159 ft | 4 kts | 256° |
| 2026-04-21 16:46 | -33.96693 | 18.59816 | 160 ft | 4 kts | 282° |
| 2026-04-21 16:46 | -33.96705 | 18.59836 | 160 ft | 4 kts | 343° |
| 2026-04-21 16:46 | -33.96726 | 18.59842 | 160 ft | 1 kts | 346° |
| 2026-04-21 16:47 | -33.96730 | 18.59844 | 160 ft | 0 kts | 346° |
| 2026-04-21 16:50 | -33.96729 | 18.59843 | 160 ft | 1 kts | 346° |
| 2026-04-21 16:50 | -33.96715 | 18.59839 | 160 ft | 3 kts | 346° |
| 2026-04-21 16:51 | -33.96683 | 18.59830 | 159 ft | 7 kts | 346° |
| 2026-04-21 16:51 | -33.96625 | 18.59813 | 158 ft | 11 kts | 346° |
| 2026-04-21 16:51 | -33.96543 | 18.59789 | 156 ft | 14 kts | 346° |
| 2026-04-21 16:51 | -33.96445 | 18.59765 | 156 ft | 15 kts | 349° |
| 2026-04-21 16:52 | -33.96339 | 18.59742 | 158 ft | 15 kts | 350° |
| 2026-04-21 16:52 | -33.96230 | 18.59734 | 158 ft | 16 kts | 17° |
| 2026-04-21 16:52 | -33.96154 | 18.59814 | 155 ft | 14 kts | 45° |
| 2026-04-21 16:52 | -33.96136 | 18.59836 | 155 ft | 5 kts | 45° |
| 2026-04-21 16:53 | -33.96107 | 18.59871 | 156 ft | 6 kts | 45° |
| 2026-04-21 16:53 | -33.96079 | 18.59905 | 157 ft | 6 kts | 45° |
| 2026-04-21 16:53 | -33.96047 | 18.59947 | 157 ft | 9 kts | 52° |
| 2026-04-21 16:53 | -33.96029 | 18.60009 | 157 ft | 3 kts | 113° |
| 2026-04-21 16:54 | -33.96042 | 18.60023 | 157 ft | 1 kts | 150° |
| 2026-04-21 16:54 | -33.96048 | 18.60024 | 158 ft | 1 kts | 162° |
| 2026-04-21 16:54 | -33.96114 | 18.60046 | 158 ft | 29 kts | 165° |
| 2026-04-21 16:54 | -33.96531 | 18.60175 | 163 ft | 93 kts | 166° |
| 2026-04-21 16:55 | -33.97333 | 18.60427 | 155 ft | 144 kts | 165° |
| 2026-04-21 16:55 | -33.98378 | 18.60730 | 541 ft | 158 kts | 169° |
| 2026-04-21 16:55 | -33.99471 | 18.61038 | 1153 ft | 165 kts | 169° |
| 2026-04-21 16:55 | -34.00650 | 18.61375 | 1607 ft | 186 kts | 170° |
| 2026-04-21 16:56 | -34.02036 | 18.61767 | 1913 ft | 223 kts | 170° |
| 2026-04-21 16:56 | -34.03611 | 18.62219 | 2653 ft | 238 kts | 170° |
| 2026-04-21 16:56 | -34.05241 | 18.62680 | 3666 ft | 244 kts | 172° |
| 2026-04-21 16:56 | -34.06942 | 18.62649 | 4595 ft | 247 kts | 198° |
| 2026-04-21 16:57 | -34.08489 | 18.61751 | 5596 ft | 249 kts | 214° |
| 2026-04-21 16:57 | -34.09962 | 18.60597 | 6568 ft | 255 kts | 216° |
| 2026-04-21 16:57 | -34.11438 | 18.59384 | 7534 ft | 258 kts | 221° |
| 2026-04-21 16:57 | -34.12511 | 18.57685 | 8525 ft | 256 kts | 248° |
| 2026-04-21 16:58 | -34.12816 | 18.55580 | 9534 ft | 258 kts | 269° |
| 2026-04-21 16:58 | -34.12722 | 18.53405 | 10434 ft | 263 kts | 272° |
| 2026-04-21 16:58 | -34.12553 | 18.51124 | 10867 ft | 284 kts | 273° |
| 2026-04-21 16:58 | -34.12229 | 18.48681 | 11211 ft | 306 kts | 283° |
| 2026-04-21 16:59 | -34.11331 | 18.46292 | 11792 ft | 322 kts | 301° |
| 2026-04-21 16:59 | -34.09672 | 18.44400 | 12492 ft | 339 kts | 325° |
| 2026-04-21 16:59 | -34.07398 | 18.43483 | 13177 ft | 356 kts | 350° |
| 2026-04-21 16:59 | -34.04897 | 18.43603 | 13933 ft | 368 kts | 6° |
| 2026-04-21 17:00 | -34.02372 | 18.44339 | 14599 ft | 377 kts | 13° |
| 2026-04-21 17:00 | -33.99868 | 18.45352 | 15272 ft | 383 kts | 16° |
| 2026-04-21 17:00 | -33.98201 | 18.46077 | 15737 ft | 386 kts | 16° |
| 2026-04-21 17:00 | -33.94787 | 18.47531 | 16627 ft | 393 kts | 14° |
| 2026-04-21 17:01 | -33.92179 | 18.48568 | 17321 ft | 397 kts | 13° |
| 2026-04-21 17:01 | -33.89528 | 18.49560 | 18005 ft | 402 kts | 12° |
| 2026-04-21 17:01 | -33.86834 | 18.50526 | 18653 ft | 406 kts | 11° |
| 2026-04-21 17:01 | -33.84109 | 18.51478 | 19246 ft | 410 kts | 11° |
| 2026-04-21 17:02 | -33.81353 | 18.52432 | 19861 ft | 413 kts | 11° |
| 2026-04-21 17:02 | -33.78583 | 18.53388 | 20520 ft | 415 kts | 11° |
| 2026-04-21 17:02 | -33.75796 | 18.54352 | 21128 ft | 419 kts | 11° |
| 2026-04-21 17:02 | -33.72981 | 18.55326 | 21736 ft | 423 kts | 10° |
| 2026-04-21 17:03 | -33.70144 | 18.56310 | 22290 ft | 427 kts | 10° |
| 2026-04-21 17:03 | -33.67281 | 18.57306 | 22848 ft | 430 kts | 10° |
| 2026-04-21 17:03 | -33.64429 | 18.58297 | 23393 ft | 434 kts | 10° |
| 2026-04-21 17:03 | -33.61519 | 18.59306 | 23912 ft | 437 kts | 10° |
| 2026-04-21 17:04 | -33.58588 | 18.60322 | 24377 ft | 440 kts | 10° |
| 2026-04-21 17:04 | -33.55640 | 18.61343 | 24821 ft | 442 kts | 10° |
| 2026-04-21 17:04 | -33.52684 | 18.62369 | 25374 ft | 442 kts | 10° |
| 2026-04-21 17:04 | -33.49724 | 18.63395 | 25865 ft | 444 kts | 10° |
| 2026-04-21 17:05 | -33.46747 | 18.64425 | 26295 ft | 447 kts | 10° |
| 2026-04-21 17:05 | -33.43753 | 18.65459 | 26729 ft | 449 kts | 10° |
| 2026-04-21 17:05 | -33.40739 | 18.66499 | 27164 ft | 452 kts | 10° |
| 2026-04-21 17:05 | -33.37710 | 18.67543 | 27597 ft | 454 kts | 10° |
| 2026-04-21 17:06 | -33.34666 | 18.68592 | 28024 ft | 456 kts | 10° |
| 2026-04-21 17:06 | -33.31609 | 18.69646 | 28448 ft | 458 kts | 9° |
| 2026-04-21 17:06 | -33.28539 | 18.70704 | 28798 ft | 461 kts | 10° |
| 2026-04-21 17:06 | -33.25454 | 18.71766 | 29228 ft | 462 kts | 10° |
| 2026-04-21 17:07 | -33.23362 | 18.72485 | 29491 ft | 464 kts | 10° |
| 2026-04-21 17:07 | -33.19243 | 18.73900 | 29975 ft | 467 kts | 10° |
| 2026-04-21 17:07 | -33.16082 | 18.74724 | 30315 ft | 463 kts | 1° |
| 2026-04-21 17:07 | -33.12896 | 18.74974 | 30619 ft | 456 kts | 352° |
| 2026-04-21 17:08 | -33.10761 | 18.74844 | 30836 ft | 454 kts | 348° |
| 2026-04-21 17:08 | -33.07667 | 18.74447 | 31134 ft | 453 kts | 346° |
| 2026-04-21 17:08 | -33.04509 | 18.73889 | 31438 ft | 453 kts | 344° |
| 2026-04-21 17:08 | -33.01440 | 18.73280 | 31719 ft | 454 kts | 344° |
| 2026-04-21 17:09 | -32.95190 | 18.72020 | 32323 ft | 457 kts | 344° |
| 2026-04-21 17:09 | -32.92051 | 18.71410 | 32734 ft | 456 kts | 344° |
| 2026-04-21 17:09 | -32.88925 | 18.70817 | 33187 ft | 454 kts | 345° |
| 2026-04-21 17:10 | -32.85815 | 18.70240 | 33651 ft | 451 kts | 345° |
| 2026-04-21 17:10 | -32.82715 | 18.69669 | 34041 ft | 450 kts | 345° |
| 2026-04-21 17:10 | -32.79620 | 18.69099 | 34381 ft | 450 kts | 344° |
| 2026-04-21 17:10 | -32.76536 | 18.68530 | 34710 ft | 447 kts | 345° |
| 2026-04-21 17:11 | -32.73469 | 18.67966 | 35116 ft | 444 kts | 345° |
| 2026-04-21 17:11 | -32.70420 | 18.67404 | 35467 ft | 443 kts | 345° |
| 2026-04-21 17:11 | -32.67384 | 18.66844 | 35782 ft | 442 kts | 345° |
| 2026-04-21 17:11 | -32.64349 | 18.66284 | 36065 ft | 441 kts | 345° |
| 2026-04-21 17:12 | -32.61318 | 18.65725 | 36355 ft | 440 kts | 345° |
| 2026-04-21 17:12 | -32.58295 | 18.65168 | 36644 ft | 439 kts | 345° |
| 2026-04-21 17:12 | -32.55276 | 18.64613 | 36929 ft | 439 kts | 345° |
| 2026-04-21 17:12 | -32.52265 | 18.64060 | 37211 ft | 438 kts | 345° |
| 2026-04-21 17:13 | -32.49258 | 18.63508 | 37517 ft | 437 kts | 344° |
| 2026-04-21 17:13 | -32.46260 | 18.62957 | 37809 ft | 435 kts | 344° |
| 2026-04-21 17:13 | -32.43271 | 18.62408 | 38100 ft | 434 kts | 344° |
| 2026-04-21 17:13 | -32.40286 | 18.61861 | 38381 ft | 433 kts | 344° |
| 2026-04-21 17:14 | -32.37308 | 18.61316 | 38656 ft | 433 kts | 344° |
| 2026-04-21 17:14 | -32.34337 | 18.60773 | 38889 ft | 432 kts | 344° |
| 2026-04-21 17:14 | -32.31367 | 18.60231 | 39083 ft | 432 kts | 344° |
| 2026-04-21 17:14 | -32.28401 | 18.59689 | 39239 ft | 431 kts | 344° |
| 2026-04-21 17:15 | -32.25437 | 18.59149 | 39460 ft | 430 kts | 344° |
| 2026-04-21 17:15 | -32.22485 | 18.58610 | 39643 ft | 429 kts | 344° |
| 2026-04-21 17:15 | -32.19528 | 18.58070 | 39800 ft | 430 kts | 344° |
| 2026-04-21 17:15 | -32.16572 | 18.57530 | 39958 ft | 430 kts | 344° |
| 2026-04-21 17:16 | -32.13619 | 18.56991 | 40117 ft | 430 kts | 344° |
| 2026-04-21 17:16 | -32.10661 | 18.56452 | 40268 ft | 430 kts | 344° |
| 2026-04-21 17:16 | -32.07706 | 18.55915 | 40435 ft | 430 kts | 344° |
| 2026-04-21 17:16 | -32.04748 | 18.55377 | 40586 ft | 430 kts | 344° |
| 2026-04-21 17:17 | -32.01794 | 18.54841 | 40738 ft | 429 kts | 344° |
| 2026-04-21 17:17 | -31.98854 | 18.54309 | 40972 ft | 426 kts | 344° |
| 2026-04-21 17:17 | -31.95923 | 18.53779 | 41119 ft | 426 kts | 344° |
| 2026-04-21 17:17 | -31.92986 | 18.53245 | 41164 ft | 429 kts | 344° |
| 2026-04-21 17:18 | -31.87040 | 18.52161 | 41164 ft | 434 kts | 344° |
| 2026-04-21 17:18 | -31.81089 | 18.51088 | 41167 ft | 431 kts | 344° |
| 2026-04-21 17:19 | -31.75159 | 18.50020 | 41150 ft | 431 kts | 344° |
| 2026-04-21 17:19 | -31.69278 | 18.48959 | 41160 ft | 430 kts | 344° |
| 2026-04-21 17:20 | -31.63321 | 18.47885 | 41159 ft | 430 kts | 344° |
| 2026-04-21 17:20 | -31.57443 | 18.46827 | 41158 ft | 430 kts | 344° |
| 2026-04-21 17:21 | -31.51523 | 18.45763 | 41134 ft | 430 kts | 344° |
| 2026-04-21 17:21 | -31.45607 | 18.44702 | 41160 ft | 429 kts | 344° |
| 2026-04-21 17:22 | -31.39707 | 18.43645 | 41161 ft | 429 kts | 344° |
| 2026-04-21 17:22 | -31.33801 | 18.42586 | 41166 ft | 430 kts | 344° |
| 2026-04-21 17:23 | -31.27881 | 18.41526 | 41157 ft | 431 kts | 344° |
| 2026-04-21 17:23 | -31.21949 | 18.40467 | 41154 ft | 431 kts | 344° |
| 2026-04-21 17:24 | -31.16027 | 18.39413 | 41169 ft | 430 kts | 344° |
| 2026-04-21 17:24 | -31.10110 | 18.38359 | 41168 ft | 430 kts | 344° |
| 2026-04-21 17:25 | -31.04190 | 18.37305 | 41166 ft | 430 kts | 344° |
| 2026-04-21 17:25 | -30.98272 | 18.36254 | 41160 ft | 430 kts | 344° |
| 2026-04-21 17:26 | -30.92373 | 18.35208 | 41162 ft | 428 kts | 344° |
| 2026-04-21 17:26 | -30.86484 | 18.34164 | 41162 ft | 428 kts | 344° |
| 2026-04-21 17:27 | -30.80592 | 18.33119 | 41163 ft | 428 kts | 344° |
| 2026-04-21 17:27 | -30.74699 | 18.32077 | 41136 ft | 428 kts | 344° |
| 2026-04-21 17:28 | -30.68819 | 18.31041 | 41162 ft | 427 kts | 344° |
| 2026-04-21 17:28 | -30.62956 | 18.30008 | 41163 ft | 426 kts | 344° |
| 2026-04-21 17:29 | -30.57098 | 18.28971 | 41162 ft | 426 kts | 344° |
| 2026-04-21 17:29 | -30.51238 | 18.27942 | 41166 ft | 426 kts | 344° |
| 2026-04-21 17:30 | -30.45383 | 18.26916 | 41156 ft | 425 kts | 344° |
| 2026-04-21 17:30 | -30.39551 | 18.25893 | 41158 ft | 423 kts | 344° |
| 2026-04-21 17:31 | -30.33734 | 18.24872 | 41152 ft | 423 kts | 344° |
| 2026-04-21 17:31 | -30.27916 | 18.23851 | 41150 ft | 423 kts | 344° |
| 2026-04-21 17:32 | -30.22094 | 18.22832 | 41110 ft | 423 kts | 344° |
| 2026-04-21 17:32 | -30.16324 | 18.21826 | 41140 ft | 421 kts | 344° |
| 2026-04-21 17:33 | -30.10497 | 18.20810 | 41134 ft | 421 kts | 344° |
| 2026-04-21 17:33 | -30.04746 | 18.19806 | 41135 ft | 421 kts | 344° |
| 2026-04-21 17:34 | -29.98951 | 18.18796 | 41126 ft | 421 kts | 344° |
| 2026-04-21 17:34 | -29.93163 | 18.17790 | 41129 ft | 421 kts | 344° |
| 2026-04-21 17:35 | -29.87373 | 18.16784 | 41116 ft | 421 kts | 344° |
| 2026-04-21 17:35 | -29.81583 | 18.15780 | 41121 ft | 421 kts | 344° |
| 2026-04-21 17:36 | -29.75790 | 18.14777 | 41125 ft | 421 kts | 344° |
| 2026-04-21 17:36 | -29.69996 | 18.13774 | 41124 ft | 421 kts | 344° |
| 2026-04-21 17:37 | -29.64212 | 18.12775 | 41116 ft | 420 kts | 343° |
| 2026-04-21 17:37 | -29.58445 | 18.11780 | 41116 ft | 419 kts | 343° |
| 2026-04-21 17:38 | -29.52680 | 18.10786 | 41121 ft | 419 kts | 343° |
| 2026-04-21 17:38 | -29.46910 | 18.09791 | 41104 ft | 419 kts | 343° |
| 2026-04-21 17:39 | -29.41144 | 18.08798 | 41095 ft | 419 kts | 343° |
| 2026-04-21 17:39 | -29.35398 | 18.07813 | 41096 ft | 416 kts | 343° |
| 2026-04-21 17:40 | -29.29681 | 18.06831 | 41099 ft | 415 kts | 343° |
| 2026-04-21 17:40 | -29.23965 | 18.05850 | 41092 ft | 415 kts | 343° |
| 2026-04-21 17:41 | -29.18250 | 18.04870 | 41090 ft | 415 kts | 343° |
| 2026-04-21 17:41 | -29.12536 | 18.03893 | 41074 ft | 415 kts | 343° |
| 2026-04-21 17:42 | -29.06844 | 18.02922 | 41081 ft | 413 kts | 343° |
| 2026-04-21 17:42 | -29.01161 | 18.01951 | 41087 ft | 413 kts | 343° |
| 2026-04-21 17:43 | -28.95481 | 18.00984 | 41086 ft | 413 kts | 343° |
| 2026-04-21 17:43 | -28.89797 | 18.00012 | 41079 ft | 413 kts | 343° |
| 2026-04-21 17:44 | -28.84126 | 17.99051 | 41087 ft | 411 kts | 343° |
| 2026-04-21 17:44 | -28.78490 | 17.98093 | 41081 ft | 409 kts | 343° |
| 2026-04-21 17:45 | -28.72870 | 17.97137 | 41066 ft | 409 kts | 343° |
| 2026-04-21 17:45 | -28.67232 | 17.96178 | 41066 ft | 410 kts | 343° |
| 2026-04-21 17:46 | -28.61591 | 17.95223 | 41079 ft | 410 kts | 343° |
| 2026-04-21 17:46 | -28.55955 | 17.94270 | 41077 ft | 409 kts | 342° |
| 2026-04-21 17:47 | -28.50334 | 17.93321 | 41078 ft | 408 kts | 342° |
| 2026-04-21 17:47 | -28.44717 | 17.92372 | 41077 ft | 408 kts | 342° |
| 2026-04-21 17:48 | -28.39101 | 17.91424 | 41078 ft | 408 kts | 342° |
| 2026-04-21 17:48 | -28.33520 | 17.90483 | 41078 ft | 408 kts | 342° |
| 2026-04-21 17:49 | -28.27872 | 17.89533 | 41079 ft | 407 kts | 342° |
| 2026-04-21 17:49 | -28.22299 | 17.88624 | 41077 ft | 409 kts | 344° |
| 2026-04-21 17:50 | -28.16588 | 17.88143 | 41080 ft | 413 kts | 347° |
| 2026-04-21 17:50 | -28.10842 | 17.87818 | 41080 ft | 413 kts | 347° |
| 2026-04-21 17:51 | -28.05107 | 17.87440 | 41055 ft | 412 kts | 347° |
| 2026-04-21 17:51 | -27.99395 | 17.87014 | 41083 ft | 410 kts | 346° |
| 2026-04-21 17:52 | -27.93702 | 17.86568 | 41081 ft | 410 kts | 346° |
| 2026-04-21 17:52 | -27.88009 | 17.86119 | 41081 ft | 410 kts | 346° |
| 2026-04-21 17:53 | -27.83275 | 17.85747 | 41083 ft | 410 kts | 346° |
| 2026-04-21 17:53 | -27.77581 | 17.85304 | 41083 ft | 410 kts | 346° |
| 2026-04-21 17:54 | -27.71894 | 17.84865 | 41081 ft | 409 kts | 346° |
| 2026-04-21 17:54 | -27.66227 | 17.84427 | 41070 ft | 408 kts | 346° |
| 2026-04-21 17:55 | -27.60560 | 17.83987 | 41066 ft | 408 kts | 346° |
| 2026-04-21 17:55 | -27.54895 | 17.83548 | 41063 ft | 408 kts | 346° |
| 2026-04-21 17:56 | -27.49241 | 17.83054 | 41002 ft | 404 kts | 342° |
| 2026-04-21 17:56 | -27.43709 | 17.82070 | 41059 ft | 403 kts | 341° |
| 2026-04-21 17:57 | -27.38165 | 17.81092 | 41048 ft | 403 kts | 342° |
| 2026-04-21 17:57 | -27.32613 | 17.80149 | 41041 ft | 404 kts | 342° |
| 2026-04-21 17:58 | -27.27055 | 17.79218 | 41047 ft | 404 kts | 342° |
| 2026-04-21 17:58 | -27.21497 | 17.78290 | 41029 ft | 404 kts | 342° |
| 2026-04-21 17:59 | -27.15935 | 17.77364 | 41033 ft | 404 kts | 342° |
| 2026-04-21 17:59 | -27.10409 | 17.76445 | 41021 ft | 404 kts | 342° |
| 2026-04-21 18:00 | -27.04849 | 17.75521 | 41034 ft | 404 kts | 342° |
| 2026-04-21 18:00 | -26.99291 | 17.74599 | 41036 ft | 404 kts | 342° |
| 2026-04-21 18:01 | -26.93727 | 17.73676 | 41030 ft | 405 kts | 342° |
| 2026-04-21 18:01 | -26.88145 | 17.72751 | 41031 ft | 406 kts | 342° |
| 2026-04-21 18:02 | -26.82553 | 17.71826 | 41030 ft | 406 kts | 342° |
| 2026-04-21 18:02 | -26.76958 | 17.70901 | 41030 ft | 406 kts | 342° |
| 2026-04-21 18:03 | -26.71367 | 17.69978 | 41029 ft | 406 kts | 342° |
| 2026-04-21 18:03 | -26.65781 | 17.69056 | 41023 ft | 406 kts | 342° |
| 2026-04-21 18:04 | -26.60187 | 17.68135 | 41023 ft | 407 kts | 342° |
| 2026-04-21 18:04 | -26.54587 | 17.67213 | 41029 ft | 407 kts | 342° |
| 2026-04-21 18:05 | -26.48985 | 17.66292 | 41020 ft | 407 kts | 342° |
| 2026-04-21 18:05 | -26.43380 | 17.65371 | 41030 ft | 407 kts | 342° |
| 2026-04-21 18:06 | -26.37814 | 17.64457 | 41017 ft | 407 kts | 342° |
| 2026-04-21 18:06 | -26.32209 | 17.63537 | 41013 ft | 409 kts | 342° |
| 2026-04-21 18:07 | -26.26554 | 17.62608 | 41013 ft | 411 kts | 343° |
| 2026-04-21 18:07 | -26.20887 | 17.61682 | 41007 ft | 412 kts | 343° |
| 2026-04-21 18:08 | -26.15219 | 17.60756 | 41006 ft | 412 kts | 343° |
| 2026-04-21 18:08 | -26.09552 | 17.59831 | 41010 ft | 412 kts | 343° |
| 2026-04-21 18:09 | -26.03882 | 17.58905 | 41008 ft | 412 kts | 342° |
| 2026-04-21 18:09 | -25.98211 | 17.57980 | 41007 ft | 412 kts | 342° |
| 2026-04-21 18:10 | -25.92540 | 17.57057 | 41009 ft | 412 kts | 342° |
| 2026-04-21 18:10 | -25.86870 | 17.56134 | 41004 ft | 412 kts | 342° |
| 2026-04-21 18:11 | -25.81200 | 17.55212 | 41004 ft | 412 kts | 342° |
| 2026-04-21 18:11 | -25.75571 | 17.54299 | 41000 ft | 411 kts | 342° |
| 2026-04-21 18:12 | -25.69939 | 17.53387 | 41001 ft | 408 kts | 342° |
| 2026-04-21 18:12 | -25.64329 | 17.52476 | 40998 ft | 407 kts | 342° |
| 2026-04-21 18:13 | -25.58720 | 17.51566 | 41001 ft | 407 kts | 342° |
| 2026-04-21 18:13 | -25.53109 | 17.50658 | 40998 ft | 408 kts | 342° |
| 2026-04-21 18:14 | -25.44694 | 17.49300 | 40997 ft | 406 kts | 342° |
| 2026-04-21 18:15 | -25.39114 | 17.48400 | 40996 ft | 405 kts | 342° |
| 2026-04-21 18:15 | -25.33542 | 17.47500 | 40997 ft | 405 kts | 342° |
| 2026-04-21 18:16 | -25.27970 | 17.46602 | 41006 ft | 405 kts | 342° |
| 2026-04-21 18:16 | -25.22396 | 17.45705 | 41006 ft | 405 kts | 342° |
| 2026-04-21 18:17 | -25.16823 | 17.44809 | 41007 ft | 404 kts | 342° |
| 2026-04-21 18:17 | -25.11259 | 17.43915 | 41001 ft | 404 kts | 342° |
| 2026-04-21 18:18 | -25.05699 | 17.43020 | 41003 ft | 403 kts | 342° |
| 2026-04-21 18:18 | -25.00146 | 17.42131 | 41003 ft | 404 kts | 342° |
| 2026-04-21 18:19 | -24.94589 | 17.41241 | 40999 ft | 403 kts | 342° |
| 2026-04-21 18:19 | -24.89031 | 17.40351 | 40975 ft | 404 kts | 342° |
| 2026-04-21 18:20 | -24.83457 | 17.39459 | 41006 ft | 405 kts | 342° |
| 2026-04-21 18:20 | -24.77868 | 17.38567 | 40998 ft | 406 kts | 342° |
| 2026-04-21 18:21 | -24.72271 | 17.37674 | 40992 ft | 406 kts | 342° |
| 2026-04-21 18:21 | -24.66677 | 17.36782 | 40992 ft | 406 kts | 342° |
| 2026-04-21 18:22 | -24.61119 | 17.35897 | 40938 ft | 406 kts | 342° |
| 2026-04-21 18:22 | -24.55522 | 17.35005 | 40991 ft | 407 kts | 342° |
| 2026-04-21 18:23 | -24.49915 | 17.34114 | 40992 ft | 407 kts | 342° |
| 2026-04-21 18:23 | -24.44313 | 17.33223 | 40988 ft | 407 kts | 342° |
| 2026-04-21 18:24 | -24.38710 | 17.32333 | 41000 ft | 407 kts | 342° |
| 2026-04-21 18:24 | -24.33107 | 17.31444 | 40994 ft | 407 kts | 342° |
| 2026-04-21 18:25 | -24.27505 | 17.30556 | 40996 ft | 407 kts | 342° |
| 2026-04-21 18:25 | -24.21907 | 17.29669 | 40996 ft | 406 kts | 342° |
| 2026-04-21 18:26 | -24.16310 | 17.28784 | 40995 ft | 406 kts | 342° |
| 2026-04-21 18:26 | -24.10708 | 17.27899 | 40995 ft | 407 kts | 342° |
| 2026-04-21 18:27 | -24.05144 | 17.27020 | 40994 ft | 407 kts | 342° |
| 2026-04-21 18:27 | -23.99505 | 17.26130 | 40994 ft | 407 kts | 342° |
| 2026-04-21 18:28 | -23.93908 | 17.25248 | 40993 ft | 406 kts | 342° |
| 2026-04-21 18:28 | -23.88349 | 17.24372 | 40995 ft | 406 kts | 342° |
| 2026-04-21 18:29 | -23.82748 | 17.23490 | 40994 ft | 407 kts | 342° |
| 2026-04-21 18:29 | -23.77173 | 17.22616 | 40486 ft | 403 kts | 342° |
| 2026-04-21 18:29 | -23.74394 | 17.22178 | 39906 ft | 405 kts | 342° |
| 2026-04-21 18:30 | -23.71594 | 17.21735 | 39252 ft | 408 kts | 342° |
| 2026-04-21 18:30 | -23.68778 | 17.21292 | 38729 ft | 409 kts | 342° |
| 2026-04-21 18:30 | -23.65957 | 17.20850 | 38141 ft | 409 kts | 342° |
| 2026-04-21 18:30 | -23.63145 | 17.20411 | 37613 ft | 408 kts | 343° |
| 2026-04-21 18:31 | -23.60337 | 17.19972 | 37083 ft | 407 kts | 343° |
| 2026-04-21 18:31 | -23.57536 | 17.19533 | 36547 ft | 407 kts | 343° |
| 2026-04-21 18:31 | -23.54731 | 17.19093 | 35980 ft | 408 kts | 343° |
| 2026-04-21 18:31 | -23.51917 | 17.18651 | 35412 ft | 409 kts | 343° |
| 2026-04-21 18:32 | -23.49088 | 17.18207 | 34784 ft | 412 kts | 343° |
| 2026-04-21 18:32 | -23.46240 | 17.17760 | 34126 ft | 415 kts | 344° |
| 2026-04-21 18:32 | -23.43371 | 17.17310 | 33373 ft | 418 kts | 344° |
| 2026-04-21 18:32 | -23.40490 | 17.16860 | 32603 ft | 419 kts | 345° |
| 2026-04-21 18:33 | -23.37602 | 17.16410 | 31887 ft | 420 kts | 345° |
| 2026-04-21 18:33 | -23.34711 | 17.15959 | 31264 ft | 419 kts | 345° |
| 2026-04-21 18:33 | -23.31839 | 17.15514 | 30772 ft | 414 kts | 345° |
| 2026-04-21 18:33 | -23.29000 | 17.15073 | 30276 ft | 411 kts | 345° |
| 2026-04-21 18:34 | -23.26183 | 17.14634 | 29721 ft | 407 kts | 345° |
| 2026-04-21 18:34 | -23.23395 | 17.14201 | 29193 ft | 403 kts | 345° |
| 2026-04-21 18:34 | -23.20632 | 17.13773 | 28679 ft | 399 kts | 346° |
| 2026-04-21 18:34 | -23.17851 | 17.13610 | 28046 ft | 407 kts | 356° |
| 2026-04-21 18:35 | -23.15974 | 17.13918 | 27546 ft | 419 kts | 7° |
| 2026-04-21 18:35 | -23.12288 | 17.15470 | 26747 ft | 427 kts | 16° |
| 2026-04-21 18:35 | -23.09591 | 17.16816 | 26148 ft | 426 kts | 17° |
| 2026-04-21 18:35 | -23.06904 | 17.18162 | 25578 ft | 424 kts | 17° |
| 2026-04-21 18:36 | -23.04227 | 17.19494 | 25013 ft | 422 kts | 17° |
| 2026-04-21 18:36 | -23.01559 | 17.20814 | 24448 ft | 421 kts | 17° |
| 2026-04-21 18:36 | -22.98899 | 17.22126 | 23873 ft | 419 kts | 17° |
| 2026-04-21 18:36 | -22.96243 | 17.23433 | 23244 ft | 419 kts | 17° |
| 2026-04-21 18:37 | -22.93598 | 17.24734 | 22676 ft | 416 kts | 17° |
| 2026-04-21 18:37 | -22.91010 | 17.26006 | 22127 ft | 412 kts | 18° |
| 2026-04-21 18:37 | -22.88371 | 17.27301 | 21562 ft | 409 kts | 18° |
| 2026-04-21 18:37 | -22.85791 | 17.28569 | 21025 ft | 406 kts | 18° |
| 2026-04-21 18:38 | -22.83223 | 17.29828 | 20472 ft | 404 kts | 18° |
| 2026-04-21 18:38 | -22.80665 | 17.31080 | 19927 ft | 402 kts | 18° |
| 2026-04-21 18:38 | -22.78142 | 17.32316 | 19378 ft | 395 kts | 19° |
| 2026-04-21 18:38 | -22.75693 | 17.33516 | 18846 ft | 388 kts | 19° |
| 2026-04-21 18:39 | -22.73254 | 17.34711 | 18321 ft | 382 kts | 19° |
| 2026-04-21 18:39 | -22.70816 | 17.35904 | 17743 ft | 376 kts | 19° |
| 2026-04-21 18:39 | -22.68564 | 17.37244 | 17242 ft | 376 kts | 31° |
| 2026-04-21 18:39 | -22.66714 | 17.39277 | 16735 ft | 385 kts | 51° |
| 2026-04-21 18:40 | -22.65353 | 17.41765 | 16442 ft | 380 kts | 58° |
| 2026-04-21 18:40 | -22.64132 | 17.44256 | 16303 ft | 369 kts | 58° |
| 2026-04-21 18:40 | -22.63331 | 17.45894 | 16220 ft | 360 kts | 57° |
| 2026-04-21 18:40 | -22.61821 | 17.48963 | 16007 ft | 338 kts | 57° |
| 2026-04-21 18:41 | -22.60720 | 17.51180 | 15696 ft | 334 kts | 57° |
| 2026-04-21 18:41 | -22.59614 | 17.53393 | 15369 ft | 334 kts | 57° |
| 2026-04-21 18:41 | -22.58511 | 17.55598 | 15070 ft | 333 kts | 57° |
| 2026-04-21 18:41 | -22.57414 | 17.57797 | 14817 ft | 330 kts | 57° |
| 2026-04-21 18:42 | -22.56337 | 17.59949 | 14612 ft | 319 kts | 57° |
| 2026-04-21 18:42 | -22.55307 | 17.62011 | 14285 ft | 306 kts | 57° |
| 2026-04-21 18:42 | -22.54303 | 17.64015 | 13848 ft | 301 kts | 56° |
| 2026-04-21 18:42 | -22.53312 | 17.65986 | 13277 ft | 296 kts | 57° |
| 2026-04-21 18:43 | -22.52348 | 17.67909 | 12927 ft | 283 kts | 57° |
| 2026-04-21 18:43 | -22.51431 | 17.69740 | 12563 ft | 272 kts | 56° |
| 2026-04-21 18:43 | -22.50836 | 17.70925 | 12231 ft | 269 kts | 57° |
| 2026-04-21 18:43 | -22.49646 | 17.73270 | 11742 ft | 259 kts | 55° |
| 2026-04-21 18:44 | -22.48935 | 17.74317 | 11586 ft | 255 kts | 40° |
| 2026-04-21 18:44 | -22.47503 | 17.75315 | 11255 ft | 248 kts | 13° |
| 2026-04-21 18:44 | -22.45810 | 17.75473 | 11056 ft | 241 kts | 353° |
| 2026-04-21 18:44 | -22.44184 | 17.75294 | 10915 ft | 228 kts | 351° |
| 2026-04-21 18:45 | -22.42646 | 17.75082 | 10641 ft | 219 kts | 349° |
| 2026-04-21 18:45 | -22.41236 | 17.74587 | 10277 ft | 211 kts | 329° |
| 2026-04-21 18:45 | -22.40196 | 17.73504 | 9858 ft | 209 kts | 301° |
| 2026-04-21 18:45 | -22.39723 | 17.72032 | 9372 ft | 208 kts | 281° |
| 2026-04-21 18:46 | -22.39508 | 17.70497 | 9051 ft | 207 kts | 278° |
| 2026-04-21 18:46 | -22.39323 | 17.68955 | 8878 ft | 205 kts | 277° |
| 2026-04-21 18:46 | -22.39162 | 17.67431 | 8585 ft | 203 kts | 272° |
| 2026-04-21 18:46 | -22.39392 | 17.65930 | 8374 ft | 203 kts | 252° |
| 2026-04-21 18:47 | -22.39959 | 17.64544 | 8122 ft | 200 kts | 244° |
| 2026-04-21 18:47 | -22.40576 | 17.63241 | 7997 ft | 189 kts | 244° |
| 2026-04-21 18:47 | -22.41136 | 17.62034 | 7944 ft | 170 kts | 245° |
| 2026-04-21 18:47 | -22.41646 | 17.60914 | 7856 ft | 162 kts | 245° |
| 2026-04-21 18:48 | -22.42116 | 17.59870 | 7673 ft | 148 kts | 245° |
| 2026-04-21 18:48 | -22.42562 | 17.58897 | 7495 ft | 143 kts | 245° |
| 2026-04-21 18:48 | -22.43005 | 17.57933 | 7321 ft | 143 kts | 244° |
| 2026-04-21 18:48 | -22.43449 | 17.56968 | 7154 ft | 144 kts | 244° |
| 2026-04-21 18:49 | -22.43893 | 17.56001 | 6978 ft | 144 kts | 244° |
| 2026-04-21 18:49 | -22.44335 | 17.55031 | 6771 ft | 143 kts | 244° |
| 2026-04-21 18:49 | -22.44625 | 17.54393 | 6651 ft | 142 kts | 244° |
| 2026-04-21 18:49 | -22.45207 | 17.53111 | 6465 ft | 142 kts | 245° |
| 2026-04-21 18:50 | -22.45644 | 17.52147 | 6227 ft | 144 kts | 243° |
| 2026-04-21 18:50 | -22.46098 | 17.51208 | 6014 ft | 139 kts | 244° |
| 2026-04-21 18:50 | -22.46521 | 17.50269 | 5848 ft | 140 kts | 246° |
| 2026-04-21 18:50 | -22.46958 | 17.49322 | 5663 ft | 139 kts | 245° |
| 2026-04-21 18:51 | -22.47388 | 17.48388 | 5570 ft | 135 kts | 243° |
| 2026-04-21 18:51 | -22.47749 | 17.47615 | 5575 ft | 90 kts | 243° |
| 2026-04-21 18:51 | -22.47956 | 17.47165 | 5583 ft | 38 kts | 243° |
| 2026-04-21 18:51 | -22.48052 | 17.46957 | 5585 ft | 29 kts | 244° |
| 2026-04-21 18:52 | -22.48136 | 17.46774 | 5587 ft | 26 kts | 243° |
| 2026-04-21 18:52 | -22.48214 | 17.46607 | 5602 ft | 25 kts | 243° |
| 2026-04-21 18:52 | -22.48288 | 17.46448 | 5605 ft | 22 kts | 243° |
| 2026-04-21 18:52 | -22.48346 | 17.46326 | 5605 ft | 12 kts | 243° |
| 2026-04-21 18:53 | -22.48358 | 17.46301 | 5608 ft | 1 kts | 242° |
| 2026-04-21 18:53 | -22.48367 | 17.46294 | 5607 ft | 1 kts | 211° |
| 2026-04-21 18:53 | -22.48385 | 17.46289 | 5607 ft | 4 kts | 186° |
| 2026-04-21 18:53 | -22.48418 | 17.46300 | 5611 ft | 7 kts | 161° |
| 2026-04-21 18:54 | -22.48461 | 17.46323 | 5613 ft | 7 kts | 142° |
| 2026-04-21 18:54 | -22.48499 | 17.46376 | 5611 ft | 11 kts | 128° |
| 2026-04-21 18:54 | -22.48568 | 17.46407 | 5611 ft | 8 kts | 195° |
| 2026-04-21 18:54 | -22.48597 | 17.46370 | 5604 ft | 5 kts | 247° |
| 2026-04-21 18:55 | -22.48606 | 17.46348 | 5608 ft | 4 kts | 248° |
| 2026-04-21 18:55 | -22.48604 | 17.46333 | 5612 ft | 1 kts | 287° |
| 2026-04-21 18:55 | -22.48596 | 17.46325 | 5609 ft | 1 kts | 322° |
| 2026-04-21 18:55 | -22.48579 | 17.46312 | 5615 ft | 1 kts | 321° |
| 2026-04-21 18:56 | -22.48578 | 17.46311 | 5615 ft | 0 kts | 321° |